Time;durP1;ratioP1;P1;durP2;ratioP2;P2;SDS_P1;SDS_P2;PMS_P1;PMS_P2;Temp;Humidity;BMP_temperature;BMP_pressure;BME280_temperature;BME280_humidity;BME280_pressure;Samples;Min_cycle;Max_cycle;Signal;HPM_P1;HPM_P2
2022/10/13 00:00:25;;;;;;;84.93;31.48;;;9.40;99.90;;;;;;5044498;28;20041;-63
2022/10/13 00:02:51;;;;;;;89.75;32.45;;;9.40;99.90;;;;;;5040316;28;20408;-63
2022/10/13 00:05:17;;;;;;;84.00;31.38;;;9.30;99.90;;;;;;5045863;28;20068;-63
2022/10/13 00:07:43;;;;;;;77.40;31.25;;;9.40;99.90;;;;;;5053912;28;20654;-63
2022/10/13 00:10:09;;;;;;;82.90;30.73;;;9.40;99.90;;;;;;5049250;28;20060;-63
2022/10/13 00:12:36;;;;;;;89.18;30.77;;;9.40;99.90;;;;;;5047230;28;20123;-63
2022/10/13 00:15:02;;;;;;;88.88;31.80;;;9.40;99.90;;;;;;5047616;28;20127;-63
2022/10/13 00:17:28;;;;;;;81.57;31.83;;;9.40;99.90;;;;;;5052824;28;20025;-63
2022/10/13 00:19:53;;;;;;;96.45;32.08;;;9.40;99.90;;;;;;5048402;28;20049;-63
2022/10/13 00:22:19;;;;;;;90.00;32.17;;;9.40;99.90;;;;;;5046671;28;20029;-63
2022/10/13 00:24:50;;;;;;;87.00;31.67;;;9.40;99.90;;;;;;5052187;28;20040;-63
2022/10/13 00:27:15;;;;;;;77.03;29.85;;;9.40;99.90;;;;;;5053128;28;20045;-63
2022/10/13 00:29:41;;;;;;;86.57;30.85;;;9.40;99.90;;;;;;5076191;28;20515;-63
2022/10/13 00:32:06;;;;;;;84.13;31.67;;;9.30;99.90;;;;;;5040816;28;20080;-63
2022/10/13 00:34:32;;;;;;;80.15;31.27;;;9.30;99.90;;;;;;5045936;28;20123;-63
2022/10/13 00:36:57;;;;;;;83.82;33.00;;;9.40;99.90;;;;;;5049098;28;20077;-63
2022/10/13 00:39:24;;;;;;;73.05;29.50;;;9.40;99.90;;;;;;5047564;28;20033;-64
2022/10/13 00:41:49;;;;;;;86.97;31.58;;;9.30;99.90;;;;;;5038647;28;20526;-63
2022/10/13 00:44:53;;;;;;;75.97;30.70;;;9.30;99.90;;;;;;5044470;28;20041;-63
2022/10/13 00:47:19;;;;;;;82.88;31.73;;;9.30;99.90;;;;;;5041747;28;20057;-63
2022/10/13 00:49:45;;;;;;;81.45;30.48;;;9.40;99.90;;;;;;5041990;28;20033;-64
2022/10/13 00:52:13;;;;;;;85.90;31.60;;;9.40;99.90;;;;;;5046154;28;20077;-64
2022/10/13 00:54:39;;;;;;;71.20;29.48;;;9.30;99.90;;;;;;5045246;28;20049;-63
2022/10/13 00:57:06;;;;;;;82.47;31.88;;;9.40;99.90;;;;;;5075370;28;20535;-64
2022/10/13 00:59:33;;;;;;;98.45;33.22;;;9.40;99.90;;;;;;5047811;28;20047;-64
2022/10/13 01:02:00;;;;;;;79.18;31.63;;;9.40;99.90;;;;;;5038443;28;20045;-64
2022/10/13 01:04:29;;;;;;;91.05;32.88;;;9.40;99.90;;;;;;5043684;28;20094;-64
2022/10/13 01:06:57;;;;;;;80.47;31.85;;;9.30;99.90;;;;;;5074355;28;20048;-64
2022/10/13 01:09:22;;;;;;;84.38;32.10;;;9.40;99.90;;;;;;5048152;28;20055;-64
2022/10/13 01:12:13;;;;;;;80.53;30.23;;;9.30;99.90;;;;;;5051803;28;20041;-64
2022/10/13 01:14:57;;;;;;;82.80;31.15;;;9.30;99.90;;;;;;5048247;28;20117;-64
2022/10/13 01:17:43;;;;;;;76.70;30.80;;;9.40;99.90;;;;;;5035514;28;20045;-64
2022/10/13 01:20:32;;;;;;;90.38;33.92;;;9.30;99.90;;;;;;5044493;28;20044;-64
2022/10/13 01:23:29;;;;;;;82.13;31.88;;;9.30;99.90;;;;;;5048834;28;20060;-63
2022/10/13 01:26:25;;;;;;;76.50;30.10;;;9.30;99.90;;;;;;5043306;28;20068;-64
2022/10/13 01:29:29;;;;;;;74.63;29.65;;;9.20;99.90;;;;;;5040033;28;20037;-64
2022/10/13 01:32:07;;;;;;;74.40;31.02;;;9.20;99.90;;;;;;5043998;28;20029;-64
2022/10/13 01:34:59;;;;;;;85.57;30.92;;;9.30;99.90;;;;;;5045555;28;20040;-64
2022/10/13 01:37:51;;;;;;;81.72;31.58;;;9.20;99.90;;;;;;5079238;28;20056;-63
2022/10/13 01:40:41;;;;;;;71.90;28.50;;;9.20;99.90;;;;;;5040457;28;20037;-63
2022/10/13 01:43:17;;;;;;;77.22;30.70;;;9.20;99.90;;;;;;5043239;28;20037;-63
2022/10/13 01:46:01;;;;;;;80.93;30.20;;;9.20;99.90;;;;;;5046381;28;20048;-63
2022/10/13 01:48:28;;;;;;;71.70;29.08;;;9.20;99.90;;;;;;5046784;28;20445;-64
2022/10/13 01:50:56;;;;;;;78.35;30.63;;;9.20;99.90;;;;;;5049186;28;20167;-64
2022/10/13 01:53:22;;;;;;;79.18;29.58;;;9.10;99.90;;;;;;5048132;28;20112;-63
2022/10/13 01:55:54;;;;;;;81.85;31.10;;;9.20;99.90;;;;;;5074981;28;20507;-64
2022/10/13 01:58:22;;;;;;;73.90;29.95;;;9.20;99.90;;;;;;5049234;28;20036;-64
2022/10/13 02:01:11;;;;;;;69.47;29.02;;;9.10;99.90;;;;;;5044264;28;20056;-64
2022/10/13 02:03:46;;;;;;;76.63;29.45;;;9.10;99.90;;;;;;5043125;28;20037;-64
2022/10/13 02:06:26;;;;;;;71.10;28.35;;;9.10;99.90;;;;;;5048369;28;21280;-64
2022/10/13 02:09:24;;;;;;;78.15;30.08;;;9.20;99.90;;;;;;5044721;28;20041;-64
2022/10/13 02:12:03;;;;;;;78.35;29.45;;;9.20;99.90;;;;;;5031929;28;20049;-63
2022/10/13 02:14:33;;;;;;;70.55;28.15;;;9.10;99.90;;;;;;5042183;28;20471;-64
2022/10/13 02:17:02;;;;;;;68.85;26.63;;;9.20;99.90;;;;;;5073145;28;20468;-63
2022/10/13 02:19:29;;;;;;;69.47;27.80;;;9.20;99.90;;;;;;5072318;28;20154;-63
2022/10/13 02:21:56;;;;;;;72.53;28.80;;;9.30;99.90;;;;;;5041881;28;20083;-63
2022/10/13 02:24:25;;;;;;;72.38;29.08;;;9.30;99.90;;;;;;5053690;28;20041;-64
2022/10/13 02:26:51;;;;;;;62.97;27.80;;;9.40;99.90;;;;;;5054829;28;21396;-63
2022/10/13 02:29:17;;;;;;;69.20;28.98;;;9.40;99.90;;;;;;5050191;28;20047;-63
2022/10/13 02:31:44;;;;;;;72.90;28.25;;;9.40;99.90;;;;;;5057550;28;20044;-64
2022/10/13 02:34:11;;;;;;;67.65;27.67;;;9.30;99.90;;;;;;5048365;28;20567;-63
2022/10/13 02:36:37;;;;;;;73.22;26.70;;;9.40;99.90;;;;;;5052761;28;20047;-64
2022/10/13 02:39:08;;;;;;;62.80;27.48;;;9.40;99.90;;;;;;5053728;28;20049;-64
2022/10/13 02:41:33;;;;;;;65.35;26.55;;;9.40;99.90;;;;;;5044836;28;20852;-64
2022/10/13 02:43:59;;;;;;;66.60;26.17;;;9.40;99.90;;;;;;5039219;28;20045;-64
2022/10/13 02:46:24;;;;;;;65.80;26.38;;;9.40;99.90;;;;;;5056087;28;20028;-63
2022/10/13 02:48:50;;;;;;;61.60;26.83;;;9.40;99.90;;;;;;5057284;28;20041;-63
2022/10/13 02:51:18;;;;;;;63.38;27.45;;;9.40;99.90;;;;;;5046257;28;20046;-63
2022/10/13 02:53:43;;;;;;;57.05;25.52;;;9.50;99.90;;;;;;5048685;28;20492;-64
2022/10/13 02:56:09;;;;;;;64.00;26.42;;;9.50;99.90;;;;;;5055338;28;20047;-64
2022/10/13 02:58:35;;;;;;;66.82;26.60;;;9.50;99.90;;;;;;5051456;28;20077;-64
2022/10/13 03:01:10;;;;;;;59.72;25.42;;;9.50;99.90;;;;;;5053486;28;20369;-63
2022/10/13 03:03:36;;;;;;;64.90;26.48;;;9.50;99.90;;;;;;5063251;28;20089;-64
2022/10/13 03:06:02;;;;;;;57.33;27.02;;;9.60;99.90;;;;;;5075653;28;20049;-64
2022/10/13 03:08:28;;;;;;;59.30;25.58;;;9.60;99.90;;;;;;5056318;28;20041;-65
2022/10/13 03:10:54;;;;;;;64.10;26.20;;;9.60;99.90;;;;;;5031486;28;20057;-65
2022/10/13 03:13:20;;;;;;;63.88;27.02;;;9.60;99.90;;;;;;5044010;28;20037;-66
2022/10/13 03:15:46;;;;;;;56.55;25.48;;;9.60;99.90;;;;;;5041910;28;20032;-66
2022/10/13 03:18:12;;;;;;;61.67;25.77;;;9.60;99.90;;;;;;5043815;28;20041;-66
2022/10/13 03:20:38;;;;;;;63.92;25.60;;;9.70;99.90;;;;;;5040634;28;20037;-66
2022/10/13 03:23:05;;;;;;;59.13;26.42;;;9.60;99.90;;;;;;5044798;28;20040;-66
2022/10/13 03:25:32;;;;;;;66.72;27.65;;;9.70;99.90;;;;;;5047095;28;20057;-66
2022/10/13 03:27:57;;;;;;;63.83;27.55;;;9.60;99.90;;;;;;5022310;28;20480;-66
2022/10/13 03:30:23;;;;;;;71.40;27.95;;;9.60;99.90;;;;;;5046340;28;20052;-66
2022/10/13 03:32:49;;;;;;;65.97;29.10;;;9.70;99.90;;;;;;5045374;28;20472;-66
2022/10/13 03:35:14;;;;;;;71.00;28.27;;;9.80;99.90;;;;;;5041007;28;20038;-67
2022/10/13 03:37:40;;;;;;;68.82;28.67;;;9.80;99.90;;;;;;5039948;28;20033;-67
2022/10/13 03:40:06;;;;;;;77.47;29.50;;;9.70;99.90;;;;;;5075139;28;20036;-67
2022/10/13 03:42:35;;;;;;;67.13;27.58;;;9.70;99.90;;;;;;5044832;28;20049;-67
2022/10/13 03:45:01;;;;;;;76.43;29.48;;;9.80;99.90;;;;;;5043108;28;20045;-67
2022/10/13 03:47:27;;;;;;;72.80;29.15;;;9.90;99.90;;;;;;5043511;28;20556;-68
2022/10/13 03:49:53;;;;;;;64.38;27.50;;;9.80;99.90;;;;;;5037178;28;20049;-68
2022/10/13 03:52:19;;;;;;;83.43;32.50;;;9.80;99.90;;;;;;5045040;28;20033;-68
2022/10/13 03:54:45;;;;;;;65.47;28.30;;;9.80;99.90;;;;;;5046000;28;20040;-69
2022/10/13 03:57:11;;;;;;;75.07;30.48;;;9.80;99.90;;;;;;5047277;28;20041;-68
2022/10/13 03:59:39;;;;;;;87.00;31.83;;;9.90;99.90;;;;;;5044737;28;20041;-68
2022/10/13 04:02:05;;;;;;;80.45;30.10;;;9.80;99.90;;;;;;5074036;28;20033;-68
2022/10/13 04:04:30;;;;;;;73.53;28.60;;;9.90;99.90;;;;;;5046907;28;20338;-68
2022/10/13 04:06:56;;;;;;;67.95;28.50;;;9.90;99.90;;;;;;5042380;28;20518;-67
2022/10/13 04:09:21;;;;;;;85.80;31.33;;;9.90;99.90;;;;;;5043982;28;20141;-67
2022/10/13 04:11:50;;;;;;;75.07;30.10;;;9.80;99.90;;;;;;5040697;28;20211;-68
2022/10/13 04:14:15;;;;;;;69.65;28.75;;;9.90;99.90;;;;;;5042566;28;20127;-67
2022/10/13 04:16:41;;;;;;;97.68;32.17;;;9.90;99.90;;;;;;5041516;28;20529;-68
2022/10/13 04:19:06;;;;;;;80.78;31.98;;;10.00;99.90;;;;;;5040025;28;20048;-68
2022/10/13 04:21:33;;;;;;;85.55;31.23;;;9.90;99.90;;;;;;5038415;28;20037;-68
2022/10/13 04:24:00;;;;;;;85.15;31.55;;;10.00;99.90;;;;;;5041046;28;20044;-68
2022/10/13 04:26:28;;;;;;;66.72;28.30;;;9.90;99.90;;;;;;5038356;28;20041;-68
2022/10/13 04:28:55;;;;;;;68.15;27.98;;;10.00;99.90;;;;;;5039687;28;20068;-68
2022/10/13 04:31:22;;;;;;;69.28;28.25;;;10.00;99.90;;;;;;5040496;28;20051;-69
2022/10/13 04:33:48;;;;;;;91.55;32.13;;;9.90;99.90;;;;;;5039436;28;20095;-68
2022/10/13 04:36:14;;;;;;;70.97;29.25;;;10.00;99.90;;;;;;5046049;28;20047;-69
2022/10/13 04:38:41;;;;;;;86.78;31.95;;;10.00;99.90;;;;;;5039233;28;20127;-69
2022/10/13 04:41:08;;;;;;;63.58;27.88;;;10.00;99.90;;;;;;5041193;28;20063;-68
2022/10/13 04:43:34;;;;;;;75.35;30.33;;;9.90;99.90;;;;;;5044711;28;20084;-68
2022/10/13 04:46:08;;;;;;;71.15;28.95;;;10.00;99.90;;;;;;5043872;28;20037;-68
2022/10/13 04:48:34;;;;;;;86.88;30.45;;;10.00;99.90;;;;;;5037526;28;20034;-68
2022/10/13 04:51:01;;;;;;;61.72;27.17;;;10.00;99.90;;;;;;5038251;28;20095;-68
2022/10/13 04:53:28;;;;;;;87.25;30.92;;;9.90;99.90;;;;;;5037913;28;20688;-68
2022/10/13 04:55:55;;;;;;;74.82;30.65;;;10.00;99.90;;;;;;5039998;28;20075;-68
2022/10/13 04:58:22;;;;;;;103.53;31.85;;;10.00;99.90;;;;;;5037281;28;20046;-68
2022/10/13 05:00:47;;;;;;;65.65;27.60;;;10.00;99.90;;;;;;5035340;28;20480;-68
2022/10/13 05:03:13;;;;;;;65.22;28.10;;;9.90;99.90;;;;;;5037211;28;20029;-69
2022/10/13 05:05:39;;;;;;;63.33;27.38;;;9.90;99.90;;;;;;5035854;28;20041;-69
2022/10/13 05:08:05;;;;;;;82.20;31.13;;;10.00;99.90;;;;;;5034082;28;20049;-68
2022/10/13 05:10:30;;;;;;;68.70;27.50;;;10.00;99.90;;;;;;5042548;28;20045;-69
2022/10/13 05:12:56;;;;;;;70.70;28.33;;;10.00;99.90;;;;;;5040626;28;20047;-68
2022/10/13 05:15:22;;;;;;;65.07;27.55;;;9.90;99.90;;;;;;5035907;28;20046;-69
2022/10/13 05:17:48;;;;;;;63.67;26.63;;;10.00;99.90;;;;;;5038218;28;20048;-69
2022/10/13 05:20:13;;;;;;;56.45;25.75;;;10.00;99.90;;;;;;5041111;28;20068;-70
2022/10/13 05:22:39;;;;;;;70.75;29.02;;;10.00;99.90;;;;;;5036361;28;20037;-68
2022/10/13 05:25:04;;;;;;;57.40;26.15;;;10.00;99.90;;;;;;5037161;28;20492;-68
2022/10/13 05:27:30;;;;;;;64.63;27.88;;;10.00;99.90;;;;;;5037694;28;20033;-68
2022/10/13 05:29:56;;;;;;;79.32;30.10;;;10.10;99.90;;;;;;5037381;28;20044;-68
2022/10/13 05:32:21;;;;;;;66.85;27.08;;;10.10;99.90;;;;;;5038661;28;20041;-68
2022/10/13 05:34:48;;;;;;;58.88;27.15;;;10.00;99.90;;;;;;5033573;28;20033;-69
2022/10/13 05:37:15;;;;;;;67.72;28.45;;;10.00;99.90;;;;;;5038686;28;20033;-69
2022/10/13 05:39:41;;;;;;;68.90;28.77;;;10.00;99.90;;;;;;5035806;28;20032;-69
2022/10/13 05:42:07;;;;;;;66.13;28.73;;;10.00;99.90;;;;;;5036045;28;20045;-69
2022/10/13 05:44:35;;;;;;;59.63;26.42;;;10.00;99.90;;;;;;5068390;28;20064;-68
2022/10/13 05:47:00;;;;;;;59.28;26.77;;;10.10;99.90;;;;;;5069469;28;20057;-68
2022/10/13 05:49:26;;;;;;;56.83;25.40;;;10.00;99.90;;;;;;5035865;28;20048;-69
2022/10/13 05:51:56;;;;;;;56.80;26.27;;;10.10;99.90;;;;;;5038535;28;20040;-69
2022/10/13 05:54:28;;;;;;;72.28;29.08;;;10.10;99.90;;;;;;5036523;28;20059;-69
2022/10/13 05:57:17;;;;;;;70.00;28.88;;;10.00;99.90;;;;;;5037003;28;20044;-69
2022/10/13 05:59:51;;;;;;;63.20;27.05;;;10.00;99.90;;;;;;5024394;28;20049;-69
2022/10/13 06:02:19;;;;;;;57.42;25.80;;;10.10;99.90;;;;;;5040353;28;20041;-70
2022/10/13 06:04:49;;;;;;;65.88;28.13;;;10.10;99.90;;;;;;5039229;28;20037;-69
2022/10/13 06:07:15;;;;;;;64.05;29.38;;;10.20;99.90;;;;;;5041801;28;21936;-70
2022/10/13 06:09:41;;;;;;;58.08;26.45;;;10.10;99.90;;;;;;5042563;28;20500;-69
2022/10/13 06:12:08;;;;;;;66.70;28.58;;;10.20;99.90;;;;;;5045423;28;20044;-70
2022/10/13 06:14:33;;;;;;;67.60;27.83;;;10.20;99.90;;;;;;5071563;28;20044;-69
2022/10/13 06:16:59;;;;;;;85.60;30.05;;;10.10;99.90;;;;;;5043474;28;20053;-69
2022/10/13 06:19:25;;;;;;;68.30;28.95;;;10.10;99.90;;;;;;5051205;28;20039;-70
2022/10/13 06:21:50;;;;;;;72.72;29.48;;;10.20;99.90;;;;;;5047509;28;20029;-69
2022/10/13 06:24:16;;;;;;;59.10;25.55;;;10.20;99.90;;;;;;5039809;28;20046;-68
2022/10/13 06:26:42;;;;;;;74.68;28.55;;;10.20;99.90;;;;;;5046914;28;20570;-68
2022/10/13 06:29:08;;;;;;;76.15;29.13;;;10.30;99.90;;;;;;5048477;28;20040;-68
2022/10/13 06:31:33;;;;;;;73.20;28.98;;;10.40;99.90;;;;;;5048356;28;20042;-68
2022/10/13 06:33:59;;;;;;;70.05;28.10;;;10.40;99.90;;;;;;5074894;28;20510;-69
2022/10/13 06:36:24;;;;;;;63.25;28.85;;;10.40;99.90;;;;;;5042227;28;20044;-69
2022/10/13 06:38:50;;;;;;;100.80;32.90;;;10.40;99.90;;;;;;5040572;28;20482;-69
2022/10/13 06:41:16;;;;;;;70.47;29.77;;;10.40;99.90;;;;;;5044044;28;20509;-68
2022/10/13 06:43:41;;;;;;;83.53;31.27;;;10.40;99.90;;;;;;5050851;28;20499;-69
2022/10/13 06:46:07;;;;;;;70.00;30.00;;;10.40;99.90;;;;;;5051006;28;20047;-68
2022/10/13 06:48:33;;;;;;;81.07;31.33;;;10.50;99.90;;;;;;5051853;28;20040;-67
2022/10/13 06:51:05;;;;;;;74.18;30.15;;;10.40;99.90;;;;;;5055717;28;20053;-68
2022/10/13 06:53:31;;;;;;;80.55;30.75;;;10.50;99.90;;;;;;5051152;28;20029;-70
2022/10/13 06:55:58;;;;;;;71.82;29.30;;;10.60;99.90;;;;;;5038212;28;20033;-68
2022/10/13 06:58:25;;;;;;;66.93;27.48;;;10.70;99.90;;;;;;5058101;28;20037;-68
2022/10/13 07:00:50;;;;;;;80.90;30.90;;;10.60;99.90;;;;;;5058056;28;20543;-69
2022/10/13 07:03:16;;;;;;;84.07;30.80;;;10.70;99.90;;;;;;5040016;28;20112;-69
2022/10/13 07:05:41;;;;;;;77.90;30.48;;;10.70;99.90;;;;;;5046983;28;20550;-68
2022/10/13 07:08:07;;;;;;;82.40;30.90;;;10.80;99.90;;;;;;5052097;28;20066;-68
2022/10/13 07:10:33;;;;;;;95.75;32.58;;;10.80;99.90;;;;;;5036787;28;20033;-68
2022/10/13 07:12:58;;;;;;;66.82;29.30;;;10.70;99.90;;;;;;5062671;28;20067;-69
2022/10/13 07:15:24;;;;;;;80.57;30.58;;;10.80;99.90;;;;;;5057358;28;20123;-68
2022/10/13 07:17:52;;;;;;;74.65;29.80;;;10.80;99.90;;;;;;5050285;28;20045;-71
2022/10/13 07:20:19;;;;;;;68.95;29.83;;;10.80;99.90;;;;;;5056145;28;20041;-69
2022/10/13 07:22:45;;;;;;;78.85;31.33;;;10.90;99.90;;;;;;5052694;28;20045;-68
2022/10/13 07:25:10;;;;;;;71.68;29.60;;;10.90;99.90;;;;;;5031337;28;20033;-71
2022/10/13 07:27:37;;;;;;;79.97;30.38;;;11.00;99.90;;;;;;5053604;28;20025;-68
2022/10/13 07:30:04;;;;;;;100.00;33.45;;;11.10;99.90;;;;;;5051570;28;20048;-68
2022/10/13 07:32:31;;;;;;;91.80;33.05;;;11.20;99.90;;;;;;5049217;28;20037;-68
2022/10/13 07:34:56;;;;;;;81.85;32.78;;;11.30;99.90;;;;;;5052328;28;20044;-68
2022/10/13 07:37:23;;;;;;;72.88;30.55;;;11.30;99.90;;;;;;5053488;28;20400;-69
2022/10/13 07:39:49;;;;;;;83.80;31.05;;;11.20;99.90;;;;;;5052772;28;20033;-68
2022/10/13 07:42:15;;;;;;;73.72;30.35;;;11.30;99.90;;;;;;5035147;28;20033;-68
2022/10/13 07:44:41;;;;;;;68.00;30.45;;;11.40;99.90;;;;;;5052577;28;20052;-68
2022/10/13 07:47:07;;;;;;;83.68;32.38;;;11.40;99.90;;;;;;5035226;28;20037;-69
2022/10/13 07:49:32;;;;;;;86.72;31.92;;;11.50;99.90;;;;;;5051863;28;20041;-68
2022/10/13 07:51:58;;;;;;;82.55;32.85;;;11.60;99.90;;;;;;5053102;28;20045;-69
2022/10/13 07:54:23;;;;;;;87.07;33.00;;;11.70;99.90;;;;;;5049158;28;20040;-70
2022/10/13 07:56:53;;;;;;;86.05;33.65;;;11.70;99.90;;;;;;5046488;28;20056;-69
2022/10/13 07:59:19;;;;;;;99.50;35.47;;;11.90;99.90;;;;;;5046279;28;20047;-68
2022/10/13 08:01:44;;;;;;;97.55;36.78;;;12.00;99.90;;;;;;5046274;28;20033;-67
2022/10/13 08:04:10;;;;;;;78.55;31.05;;;11.90;99.90;;;;;;5048614;28;20534;-71
2022/10/13 08:06:36;;;;;;;93.60;33.78;;;12.00;99.90;;;;;;5043104;28;20617;-69
2022/10/13 08:09:03;;;;;;;87.78;33.25;;;12.00;99.90;;;;;;5048943;28;20392;-70
2022/10/13 08:11:29;;;;;;;85.40;33.33;;;12.00;99.90;;;;;;5036544;28;20040;-72
2022/10/13 08:13:59;;;;;;;86.70;32.83;;;12.00;99.90;;;;;;5042506;28;20049;-71
2022/10/13 08:16:26;;;;;;;90.40;33.38;;;12.10;99.90;;;;;;5048632;28;20041;-71
2022/10/13 08:18:52;;;;;;;103.90;35.65;;;12.10;99.90;;;;;;5049811;28;20033;-70
2022/10/13 08:21:19;;;;;;;91.55;33.97;;;12.30;99.90;;;;;;5044942;28;20041;-70
2022/10/13 08:23:45;;;;;;;87.88;33.53;;;12.20;99.90;;;;;;5050607;28;20041;-71
2022/10/13 08:26:17;;;;;;;88.93;35.40;;;12.30;99.90;;;;;;5036577;28;20045;-70
2022/10/13 08:28:42;;;;;;;104.85;35.15;;;12.30;99.90;;;;;;5041491;28;20033;-72
2022/10/13 08:31:08;;;;;;;83.13;33.67;;;12.20;99.90;;;;;;5047605;28;20381;-71
2022/10/13 08:33:34;;;;;;;95.85;34.67;;;12.20;99.90;;;;;;5040839;28;20041;-71
2022/10/13 08:35:59;;;;;;;90.00;35.50;;;12.40;99.90;;;;;;5043541;28;20399;-71
2022/10/13 08:38:25;;;;;;;83.82;34.35;;;12.30;99.90;;;;;;5047892;28;20043;-70
2022/10/13 08:40:52;;;;;;;88.55;34.08;;;12.40;99.90;;;;;;5046574;28;20416;-69
2022/10/13 08:43:20;;;;;;;92.63;35.47;;;12.30;99.90;;;;;;5073590;28;20545;-71
2022/10/13 08:45:49;;;;;;;87.75;34.45;;;12.30;99.90;;;;;;5045034;28;20044;-70
2022/10/13 08:48:26;;;;;;;101.30;36.78;;;12.40;99.90;;;;;;5043970;28;20237;-70
2022/10/13 08:50:56;;;;;;;97.53;35.78;;;12.50;99.90;;;;;;5047610;28;20041;-69
2022/10/13 08:53:39;;;;;;;100.60;35.83;;;12.40;99.90;;;;;;5042588;28;20595;-69
2022/10/13 08:56:19;;;;;;;101.95;37.13;;;12.50;99.90;;;;;;5049447;28;20130;-70
2022/10/13 08:58:46;;;;;;;90.05;35.22;;;12.40;99.90;;;;;;5048626;28;20084;-70
2022/10/13 09:01:13;;;;;;;118.43;37.97;;;12.40;99.90;;;;;;5058095;28;20491;-69
2022/10/13 09:04:16;;;;;;;95.72;36.28;;;12.50;99.90;;;;;;5052788;28;20174;-70
2022/10/13 09:06:56;;;;;;;99.50;36.15;;;12.60;99.90;;;;;;5060309;28;20083;-68
2022/10/13 09:09:23;;;;;;;95.03;37.33;;;12.50;99.90;;;;;;5055844;28;20488;-70
2022/10/13 09:11:49;;;;;;;92.70;34.45;;;12.70;99.90;;;;;;5044027;28;20045;-69
2022/10/13 09:14:36;;;;;;;101.30;36.47;;;12.60;99.90;;;;;;5048359;28;20045;-72
2022/10/13 09:17:23;;;;;;;99.15;37.35;;;12.60;99.90;;;;;;5071810;28;20045;-67
2022/10/13 09:20:05;;;;;;;109.15;35.80;;;12.60;99.90;;;;;;5043484;28;20047;-67
2022/10/13 09:22:33;;;;;;;107.47;36.47;;;12.60;99.90;;;;;;5046842;28;20434;-67
2022/10/13 09:25:20;;;;;;;92.35;35.72;;;12.60;99.90;;;;;;5051122;28;20028;-68
2022/10/13 09:27:56;;;;;;;105.55;36.40;;;12.60;99.90;;;;;;5047329;28;20610;-70
2022/10/13 09:30:45;;;;;;;98.43;35.53;;;12.90;99.90;;;;;;5049344;28;20063;-68
2022/10/13 09:33:18;;;;;;;104.57;37.42;;;12.90;99.90;;;;;;5044628;28;20059;-69
2022/10/13 09:35:55;;;;;;;103.53;37.17;;;13.00;99.90;;;;;;5050419;28;20052;-68
2022/10/13 09:38:24;;;;;;;99.60;37.13;;;13.00;99.90;;;;;;5045537;28;20037;-68
2022/10/13 09:41:10;;;;;;;96.68;36.13;;;13.00;99.90;;;;;;5044386;28;20079;-69
2022/10/13 09:43:40;;;;;;;90.05;35.85;;;13.00;99.90;;;;;;5054530;28;20062;-69
2022/10/13 09:46:29;;;;;;;103.05;36.15;;;13.00;99.90;;;;;;5042506;28;20087;-67
2022/10/13 09:49:24;;;;;;;107.95;38.25;;;13.00;99.90;;;;;;5073979;28;20044;-68
2022/10/13 09:51:49;;;;;;;106.97;38.42;;;13.10;99.90;;;;;;5065991;28;20424;-67
2022/10/13 09:54:26;;;;;;;106.53;37.55;;;12.90;99.90;;;;;;5044944;28;20056;-68
2022/10/13 09:57:10;;;;;;;113.75;40.42;;;13.00;99.90;;;;;;5082625;28;20116;-67
2022/10/13 09:59:42;;;;;;;129.52;40.67;;;12.80;99.90;;;;;;5047518;28;20435;-68
2022/10/13 10:02:21;;;;;;;114.90;39.80;;;13.00;99.90;;;;;;5043867;28;20037;-68
2022/10/13 10:04:50;;;;;;;109.22;38.97;;;12.80;99.90;;;;;;5040732;28;20070;-69
2022/10/13 10:07:20;;;;;;;152.43;43.35;;;12.80;99.90;;;;;;5039896;28;20048;-70
2022/10/13 10:09:54;;;;;;;136.00;41.72;;;12.90;99.90;;;;;;5036029;28;20077;-70
2022/10/13 10:12:22;;;;;;;116.95;39.33;;;12.80;99.90;;;;;;5040617;28;20055;-69
2022/10/13 10:14:49;;;;;;;133.45;41.03;;;12.80;99.90;;;;;;5072826;28;20041;-66
2022/10/13 10:17:23;;;;;;;113.85;38.47;;;12.90;99.90;;;;;;5043954;28;20396;-68
2022/10/13 10:20:19;;;;;;;108.53;38.92;;;12.90;99.90;;;;;;5037716;28;20160;-68
2022/10/13 10:23:13;;;;;;;120.75;39.30;;;12.80;99.90;;;;;;5045360;28;20036;-69
2022/10/13 10:25:52;;;;;;;118.72;40.35;;;12.80;99.90;;;;;;5077021;28;20049;-68
2022/10/13 10:28:37;;;;;;;111.93;40.38;;;12.90;99.90;;;;;;5041140;28;20086;-69
2022/10/13 10:31:10;;;;;;;116.35;41.33;;;12.80;99.90;;;;;;5046194;28;20044;-70
2022/10/13 10:33:57;;;;;;;146.82;44.92;;;12.80;99.90;;;;;;5043822;28;20049;-68
2022/10/13 10:36:39;;;;;;;126.10;43.08;;;12.80;99.90;;;;;;5053271;28;20123;-70
2022/10/13 10:39:19;;;;;;;141.25;44.50;;;13.00;99.90;;;;;;5050369;28;20072;-70
2022/10/13 10:42:01;;;;;;;130.98;43.47;;;13.00;99.90;;;;;;5028579;28;20493;-68
2022/10/13 10:44:35;;;;;;;;;;;13.10;99.90;;;;;;5039992;28;20388;-68
2022/10/13 10:47:05;;;;;;;129.57;42.63;;;13.00;99.90;;;;;;5046696;28;19917;-68
2022/10/13 10:49:39;;;;;;;130.40;43.25;;;13.20;99.90;;;;;;5048166;28;20124;-68
2022/10/13 10:52:15;;;;;;;145.15;44.67;;;13.00;99.90;;;;;;5048228;28;20132;-68
2022/10/13 10:55:06;;;;;;;129.30;43.88;;;13.10;99.90;;;;;;5074289;28;20033;-68
2022/10/13 10:57:49;;;;;;;165.55;46.42;;;13.00;99.90;;;;;;5048964;28;20045;-68
2022/10/13 11:00:18;;;;;;;121.32;42.67;;;13.20;99.90;;;;;;5052427;28;20041;-68
2022/10/13 11:03:23;;;;;;;146.15;45.15;;;13.20;99.90;;;;;;5052168;28;20120;-67
2022/10/13 11:06:22;;;;;;;146.05;45.33;;;13.10;99.90;;;;;;5045979;28;20057;-68
2022/10/13 11:08:49;;;;;;;124.82;43.45;;;13.10;99.90;;;;;;5045021;28;20047;-68
2022/10/13 11:11:21;;;;;;;146.77;46.50;;;13.10;99.90;;;;;;5045933;28;20041;-68
2022/10/13 11:13:51;;;;;;;119.88;43.10;;;13.20;99.90;;;;;;5051361;28;20045;-68
2022/10/13 11:16:31;;;;;;;124.63;42.72;;;13.20;99.90;;;;;;5050849;28;20043;-68
2022/10/13 11:19:06;;;;;;;151.68;45.38;;;13.40;99.90;;;;;;5051754;28;20041;-67
2022/10/13 11:21:53;;;;;;;162.32;47.55;;;13.40;99.90;;;;;;5046183;28;20033;-68
2022/10/13 11:24:41;;;;;;;151.77;46.97;;;13.40;99.90;;;;;;5078701;28;20243;-68
2022/10/13 11:27:16;;;;;;;134.75;44.40;;;13.40;99.90;;;;;;5044370;28;20041;-68
2022/10/13 11:29:50;;;;;;;136.60;44.38;;;13.50;99.90;;;;;;5040429;28;20403;-68
2022/10/13 11:32:54;;;;;;;137.50;44.20;;;13.30;99.90;;;;;;5047432;28;20546;-69
2022/10/13 11:35:11;;;;;;;152.82;46.75;;;13.30;99.90;;;;;;5043976;28;20045;-68
2022/10/13 11:38:01;;;;;;;143.00;44.85;;;13.50;99.90;;;;;;5045029;28;20452;-69
2022/10/13 11:41:02;;;;;;;164.90;46.65;;;13.30;99.90;;;;;;5044323;28;20048;-68
2022/10/13 11:43:59;;;;;;;150.00;45.45;;;13.40;99.90;;;;;;5032778;28;20033;-68
2022/10/13 11:46:28;;;;;;;165.90;46.90;;;13.20;99.90;;;;;;5036595;28;20049;-68
2022/10/13 11:49:24;;;;;;;134.20;43.88;;;13.40;99.90;;;;;;5039586;28;20037;-68
2022/10/13 11:52:20;;;;;;;170.90;50.33;;;13.40;99.90;;;;;;5050225;28;20449;-68
2022/10/13 11:55:04;;;;;;;135.32;45.22;;;13.20;99.90;;;;;;5043322;28;20110;-68
2022/10/13 11:57:31;;;;;;;175.90;50.08;;;13.20;99.90;;;;;;5050209;28;20458;-68
2022/10/13 11:59:57;;;;;;;170.00;48.22;;;13.40;99.90;;;;;;5045955;28;20045;-68
2022/10/13 12:02:24;;;;;;;201.07;50.72;;;13.30;99.90;;;;;;5051046;28;20391;-68
2022/10/13 12:05:05;;;;;;;184.60;51.20;;;13.30;99.90;;;;;;5051405;28;20025;-68
2022/10/13 12:07:35;;;;;;;196.07;50.67;;;13.50;99.90;;;;;;5047893;28;20047;-68
2022/10/13 12:10:06;;;;;;;177.93;52.42;;;13.60;99.90;;;;;;5061761;28;20120;-68
2022/10/13 12:12:32;;;;;;;191.40;51.28;;;13.50;99.90;;;;;;5034427;28;20063;-68
2022/10/13 12:14:58;;;;;;;171.80;52.28;;;13.60;99.90;;;;;;5067075;28;20048;-68
2022/10/13 12:17:34;;;;;;;167.85;54.58;;;13.60;99.90;;;;;;5048260;28;20037;-68
2022/10/13 12:20:16;;;;;;;175.55;52.53;;;13.50;99.90;;;;;;5048268;28;20045;-68
2022/10/13 12:22:49;;;;;;;199.90;55.25;;;13.50;99.90;;;;;;5047438;28;20037;-68
2022/10/13 12:25:17;;;;;;;190.57;52.50;;;13.60;99.90;;;;;;5048870;28;20480;-68
2022/10/13 12:27:54;;;;;;;154.23;50.58;;;13.70;99.90;;;;;;5051652;28;20041;-68
2022/10/13 12:30:20;;;;;;;171.55;52.35;;;13.60;99.90;;;;;;5043889;28;20052;-68
2022/10/13 12:32:54;;;;;;;214.10;53.13;;;13.50;99.90;;;;;;5042858;28;20124;-68
2022/10/13 12:35:23;;;;;;;171.45;51.08;;;13.60;99.90;;;;;;5046041;28;20064;-68
2022/10/13 12:37:50;;;;;;;213.25;52.90;;;13.70;99.90;;;;;;5042784;28;20048;-68
2022/10/13 12:40:17;;;;;;;187.30;51.85;;;13.60;99.90;;;;;;5045390;28;20329;-67
2022/10/13 12:42:44;;;;;;;152.82;48.70;;;13.60;99.90;;;;;;5043732;28;20041;-67
2022/10/13 12:45:16;;;;;;;171.07;49.15;;;13.70;99.90;;;;;;5047408;28;20090;-68
2022/10/13 12:47:48;;;;;;;;;;;13.70;99.90;;;;;;5068161;28;20047;-68